Time;durP1;ratioP1;P1;durP2;ratioP2;P2;SDS_P1;SDS_P2;PMS_P1;PMS_P2;Temp;Humidity;BMP_temperature;BMP_pressure;BME280_temperature;BME280_humidity;BME280_pressure;Samples;Min_cycle;Max_cycle;Signal;HPM_P1;HPM_P2
2022/08/23 00:01:48;;;;;;;6.63;2.72;;;23.70;75.10;;;24.26;73.50;100722.78;5184631;28;20133;-69
2022/08/23 00:04:25;;;;;;;6.65;2.78;;;23.70;74.50;;;24.25;73.43;100722.78;5185909;28;20684;-69
2022/08/23 00:06:58;;;;;;;5.03;2.58;;;23.60;74.60;;;24.24;73.56;100721.06;5185364;28;20577;-69
2022/08/23 00:09:31;;;;;;;5.50;2.80;;;23.70;74.80;;;24.20;73.51;100722.06;5200369;28;20046;-68
2022/08/23 00:12:12;;;;;;;5.82;2.95;;;23.60;74.80;;;24.18;73.92;100713.19;5185056;28;20046;-69
2022/08/23 00:14:50;;;;;;;5.97;2.90;;;23.60;74.90;;;24.15;73.81;100721.28;5185518;28;20133;-68
2022/08/23 00:17:22;;;;;;;3.90;2.83;;;23.60;75.00;;;24.10;73.91;100716.91;5185132;28;20044;-68
2022/08/23 00:19:54;;;;;;;6.78;3.15;;;23.60;75.10;;;24.08;73.76;100713.41;5183933;28;20050;-68
2022/08/23 00:22:27;;;;;;;4.78;2.78;;;23.50;75.20;;;24.07;73.64;100711.66;5200547;28;20145;-68
2022/08/23 00:25:00;;;;;;;4.20;2.58;;;23.50;75.20;;;24.06;73.91;100709.91;5185277;28;20068;-68
2022/08/23 00:27:32;;;;;;;4.65;2.60;;;23.50;75.20;;;24.03;74.06;100715.28;5185155;28;20065;-68
2022/08/23 00:30:11;;;;;;;6.07;2.90;;;23.50;75.40;;;24.01;73.98;100711.81;5183833;28;20053;-67
2022/08/23 00:32:44;;;;;;;5.15;3.15;;;23.50;75.40;;;23.98;74.08;100705.66;5185070;28;20050;-68
2022/08/23 00:35:17;;;;;;;5.43;3.10;;;23.50;75.60;;;23.93;74.38;100705.78;5183665;28;20072;-68
2022/08/23 00:37:50;;;;;;;5.90;3.08;;;23.40;75.80;;;23.90;74.66;100699.63;5183688;28;20558;-68
2022/08/23 00:40:23;;;;;;;6.95;3.38;;;23.40;76.00;;;23.87;74.68;100697.91;5183672;28;20104;-70
2022/08/23 00:48:59;;;;;;;3.97;2.78;;;23.30;76.30;;;23.79;74.93;100713.16;5159612;28;20152;-68
2022/08/23 00:51:40;;;;;;;4.35;2.70;;;23.30;76.40;;;23.74;74.90;100713.28;5185117;28;20135;-68
2022/08/23 00:54:14;;;;;;;4.55;2.70;;;23.20;76.40;;;23.71;74.87;100712.44;5184864;28;20117;-68
2022/08/23 00:56:49;;;;;;;6.03;2.63;;;23.20;76.60;;;23.70;75.08;100713.34;5183047;28;20080;-69
2022/08/23 00:59:23;;;;;;;5.07;2.65;;;23.20;76.70;;;23.69;75.05;100714.28;5184334;28;20092;-67
2022/08/23 01:01:58;;;;;;;4.80;2.53;;;23.20;76.90;;;23.67;75.38;100710.75;5184353;28;20117;-68
2022/08/23 01:04:37;;;;;;;4.47;2.60;;;23.10;77.00;;;23.66;75.39;100724.97;5183247;28;20050;-68
2022/08/23 01:07:16;;;;;;;6.35;2.85;;;23.10;77.20;;;23.63;75.60;100720.59;5184412;28;20049;-69
2022/08/23 01:09:52;;;;;;;5.75;2.78;;;23.10;77.40;;;23.60;75.76;100722.38;5184431;28;20050;-69
2022/08/23 01:12:32;;;;;;;5.63;2.80;;;23.10;77.50;;;23.56;76.06;100719.78;5182839;28;20156;-67
2022/08/23 01:15:10;;;;;;;6.10;2.90;;;23.00;77.70;;;23.54;76.10;100718.09;5184605;28;20491;-69
2022/08/23 01:17:50;;;;;;;4.68;2.78;;;23.00;77.80;;;23.52;76.03;100715.44;5184131;28;20431;-68
2022/08/23 01:20:25;;;;;;;5.55;3.30;;;23.00;77.70;;;23.50;75.87;100714.59;5184193;28;20045;-68
2022/08/23 01:23:02;;;;;;;5.32;3.03;;;23.00;77.90;;;23.48;76.15;100715.53;5184082;28;20507;-68
2022/08/23 01:25:38;;;;;;;4.50;2.60;;;22.90;78.00;;;23.46;76.16;100717.34;5183086;28;20081;-68
2022/08/23 01:28:11;;;;;;;6.35;2.80;;;22.90;78.20;;;23.42;76.43;100721.84;5182784;28;20092;-68
2022/08/23 01:30:45;;;;;;;4.72;3.05;;;22.90;78.30;;;23.40;76.34;100723.66;5182801;28;20058;-69
2022/08/23 01:33:18;;;;;;;5.30;2.80;;;22.90;78.50;;;23.37;76.57;100729.03;5182510;28;20407;-68
2022/08/23 01:35:54;;;;;;;6.07;2.90;;;22.80;78.60;;;23.34;76.60;100726.41;5184238;28;20052;-68
2022/08/23 01:38:28;;;;;;;5.53;3.00;;;22.80;78.70;;;23.32;76.64;100730.91;5182488;28;20533;-68
2022/08/23 01:41:01;;;;;;;4.35;2.92;;;22.80;78.90;;;23.28;76.75;100732.75;5182668;28;20049;-68
2022/08/23 01:43:34;;;;;;;5.30;3.13;;;22.70;78.90;;;23.27;76.91;100732.75;5183735;28;20049;-68
2022/08/23 01:46:12;;;;;;;4.78;2.88;;;22.70;79.00;;;23.23;76.87;100733.75;5182493;28;20048;-68
2022/08/23 01:48:45;;;;;;;5.05;2.80;;;22.70;79.10;;;23.23;76.99;100731.09;5182380;28;20046;-68
2022/08/23 01:51:20;;;;;;;4.57;2.75;;;22.70;79.20;;;23.20;76.98;100739.09;5182514;28;20104;-68
2022/08/23 01:53:53;;;;;;;4.85;3.00;;;22.70;79.30;;;23.17;77.06;100742.69;5182418;28;20058;-68
2022/08/23 01:56:29;;;;;;;4.38;2.95;;;22.60;79.30;;;23.17;76.97;100736.50;5182333;28;20145;-68
2022/08/23 01:59:02;;;;;;;4.95;2.63;;;22.70;79.40;;;23.15;76.84;100738.31;5182239;28;20042;-68
2022/08/23 02:01:38;;;;;;;5.63;2.97;;;22.60;79.30;;;23.15;76.86;100735.66;5182425;28;20046;-67
2022/08/23 02:04:11;;;;;;;5.35;2.80;;;22.60;79.40;;;23.12;76.86;100741.91;5183935;28;20121;-68
2022/08/23 02:06:45;;;;;;;4.70;2.72;;;22.60;79.60;;;23.10;76.97;100740.19;5182460;28;20507;-68
2022/08/23 02:09:24;;;;;;;5.85;3.22;;;22.50;79.70;;;23.07;77.22;100742.88;5182360;28;20042;-68
2022/08/23 02:11:59;;;;;;;6.35;3.28;;;22.50;79.90;;;23.03;77.29;100739.41;5182401;28;20052;-69
2022/08/23 02:14:31;;;;;;;5.00;3.03;;;22.50;80.00;;;23.00;77.36;100745.63;5182444;28;20461;-69
2022/08/23 02:17:05;;;;;;;4.85;2.95;;;22.50;80.10;;;22.96;77.60;100743.97;5183754;28;20511;-68
2022/08/23 02:19:39;;;;;;;6.10;3.10;;;22.40;80.20;;;22.92;77.57;100746.69;5183665;28;20169;-68
2022/08/23 02:22:12;;;;;;;5.45;3.08;;;22.40;80.40;;;22.91;77.58;100750.25;5182388;28;20077;-69
2022/08/23 02:24:47;;;;;;;3.20;2.60;;;22.40;80.60;;;22.89;77.58;100747.63;5183906;28;20084;-68
2022/08/23 02:27:21;;;;;;;5.40;2.97;;;22.40;80.60;;;22.88;77.72;100750.28;5202599;28;20050;-68
2022/08/23 02:29:53;;;;;;;5.38;2.63;;;22.40;80.70;;;22.87;77.88;100749.41;5185975;28;20045;-68
2022/08/23 02:32:26;;;;;;;5.45;3.05;;;22.40;81.00;;;22.85;77.97;100753.84;5186110;28;20506;-68
2022/08/23 02:34:59;;;;;;;4.97;2.83;;;22.30;81.00;;;22.83;77.86;100750.34;5185752;28;20128;-68
2022/08/23 02:37:31;;;;;;;5.35;2.88;;;22.30;81.10;;;22.81;77.99;100749.47;5185986;28;20054;-68
2022/08/23 02:40:05;;;;;;;6.35;3.25;;;22.30;81.30;;;22.78;78.14;100744.22;5187097;28;20045;-70
2022/08/23 02:42:39;;;;;;;6.88;2.97;;;22.30;81.40;;;22.76;77.99;100754.00;5186047;28;20049;-69
2022/08/23 02:45:13;;;;;;;5.78;3.33;;;22.20;81.40;;;22.74;78.21;100753.13;5187245;28;20041;-68
2022/08/23 02:47:50;;;;;;;5.30;2.60;;;22.20;81.50;;;22.73;78.25;100751.38;5185855;28;20072;-68
2022/08/23 02:50:30;;;;;;;4.63;3.00;;;22.20;82.40;;;22.70;78.42;100754.97;5186929;28;20042;-68
2022/08/23 02:53:03;;;;;;;4.80;2.85;;;22.20;81.90;;;22.67;78.76;100757.66;5185867;28;20046;-68
2022/08/23 02:55:38;;;;;;;4.88;2.80;;;22.10;82.10;;;22.66;78.77;100755.03;5186884;28;20034;-68
2022/08/23 02:58:12;;;;;;;5.28;2.80;;;22.10;82.90;;;22.64;78.81;100759.50;5185628;28;20045;-69
2022/08/23 03:00:46;;;;;;;3.83;2.90;;;22.10;82.40;;;22.62;78.79;100764.81;5186863;28;20052;-68
2022/08/23 03:03:20;;;;;;;6.18;3.17;;;22.10;83.10;;;22.60;78.91;100761.31;5185815;28;20132;-68
2022/08/23 03:05:53;;;;;;;4.78;3.20;;;22.00;82.40;;;22.59;78.90;100766.66;5185528;28;20526;-68
2022/08/23 03:08:27;;;;;;;5.75;3.42;;;22.00;82.50;;;22.56;79.05;100774.66;5186728;28;20481;-68
2022/08/23 03:10:59;;;;;;;5.65;3.22;;;22.00;82.80;;;22.51;79.37;100765.91;5186493;28;20096;-67
2022/08/23 03:13:32;;;;;;;4.35;2.92;;;22.00;82.90;;;22.48;79.36;100753.53;5185571;28;20478;-68
2022/08/23 03:16:06;;;;;;;3.83;2.67;;;21.90;83.10;;;22.45;79.49;100759.78;5185063;28;20474;-68
2022/08/23 03:18:40;;;;;;;;;;;21.90;83.20;;;22.43;79.22;100766.91;5185425;28;20042;-70
2022/08/23 03:21:13;;;;;;;6.28;2.97;;;21.90;83.20;;;22.42;79.27;100767.78;5201432;28;19961;-68
2022/08/23 03:23:46;;;;;;;4.95;2.50;;;21.90;83.30;;;22.41;79.49;100770.47;5185390;28;20052;-69
2022/08/23 03:26:19;;;;;;;4.63;3.03;;;21.90;83.40;;;22.37;79.52;100759.00;5185956;28;20050;-68
2022/08/23 03:28:54;;;;;;;4.28;2.80;;;21.90;83.50;;;22.36;79.66;100759.88;5186138;28;20034;-69
2022/08/23 03:31:29;;;;;;;5.20;2.88;;;21.80;83.60;;;22.35;79.62;100766.09;5184949;28;20050;-69
2022/08/23 03:34:13;;;;;;;4.38;2.80;;;21.80;83.80;;;22.32;79.75;100763.50;5184951;28;20061;-68
2022/08/23 03:36:46;;;;;;;4.93;3.25;;;21.80;83.80;;;22.29;79.62;100765.31;5184643;28;20148;-68
2022/08/23 03:39:18;;;;;;;4.88;2.85;;;21.80;83.90;;;22.26;79.48;100766.25;5186377;28;20573;-68
2022/08/23 03:41:52;;;;;;;6.35;3.67;;;21.70;83.90;;;22.24;79.60;100770.72;5184814;28;20049;-68
2022/08/23 03:44:26;;;;;;;4.50;2.80;;;21.70;83.90;;;22.20;79.55;100776.94;5201258;28;20069;-68
2022/08/23 03:46:58;;;;;;;4.18;3.00;;;21.70;84.00;;;22.17;79.64;100783.19;5184534;28;20053;-68
2022/08/23 03:49:32;;;;;;;5.13;2.92;;;21.70;84.10;;;22.16;79.60;100780.53;5184593;28;20060;-68
2022/08/23 03:52:05;;;;;;;5.30;3.30;;;21.70;84.00;;;22.11;79.79;100777.06;5185808;28;20435;-68
2022/08/23 03:54:38;;;;;;;4.53;3.10;;;21.60;84.20;;;22.09;79.87;100785.03;5185855;28;20153;-69
2022/08/23 03:57:12;;;;;;;;;;;21.60;84.30;;;22.09;79.92;100776.19;5185163;28;20050;-68
2022/08/23 03:59:47;;;;;;;4.68;2.85;;;21.60;84.40;;;22.08;79.91;100782.38;5184218;28;19921;-68
2022/08/23 04:02:37;;;;;;;4.43;3.20;;;21.60;84.60;;;22.06;80.04;100777.09;5184597;28;20419;-68
2022/08/23 04:05:09;;;;;;;4.82;2.95;;;21.60;84.70;;;22.05;80.19;100787.75;5182175;28;20049;-68
2022/08/23 04:08:09;;;;;;;4.63;3.25;;;21.50;84.80;;;22.03;80.21;100794.81;5180245;28;20428;-68
2022/08/23 04:10:42;;;;;;;4.10;2.95;;;21.50;84.90;;;22.03;80.28;100797.47;5184711;28;20064;-68
2022/08/23 04:13:15;;;;;;;4.50;3.30;;;21.50;84.90;;;22.01;80.33;100796.63;5184511;28;20104;-68
2022/08/23 04:15:51;;;;;;;7.28;3.13;;;21.50;85.00;;;22.00;80.05;100802.84;5185904;28;20119;-68
2022/08/23 04:18:24;;;;;;;4.38;2.92;;;21.50;85.00;;;21.99;80.06;100806.38;5184791;28;20046;-68
2022/08/23 04:20:59;;;;;;;5.00;3.00;;;21.50;85.10;;;21.97;80.15;100805.50;5186093;28;20034;-67
2022/08/23 04:23:32;;;;;;;;;;;21.40;85.10;;;21.93;80.23;100821.47;5185212;28;20085;-67
2022/08/23 04:26:05;;;;;;;3.90;2.75;;;21.40;85.20;;;21.94;80.08;100825.88;5184742;28;19944;-68
2022/08/23 04:28:39;;;;;;;4.25;2.70;;;21.40;85.20;;;21.91;80.16;100828.59;5184136;28;20050;-68
2022/08/23 04:31:14;;;;;;;4.53;3.10;;;21.40;85.30;;;21.88;80.35;100823.31;5185737;28;20108;-68
2022/08/23 04:33:49;;;;;;;4.43;3.85;;;21.40;85.50;;;21.88;80.34;100823.31;5183943;28;20132;-69
2022/08/23 04:36:23;;;;;;;3.83;2.85;;;21.30;85.50;;;21.86;80.39;100827.75;5184352;28;20050;-69
2022/08/23 04:38:56;;;;;;;5.28;2.92;;;21.30;85.60;;;21.84;80.46;100828.66;5183949;28;20046;-68
2022/08/23 04:44:18;;;;;;;4.72;2.88;;;21.30;85.80;;;21.78;80.67;100837.59;5185430;28;20099;-69
2022/08/23 04:46:53;;;;;;;4.97;2.80;;;21.30;85.90;;;21.77;80.61;100845.53;5183414;28;20427;-69
2022/08/23 04:49:26;;;;;;;5.18;3.08;;;21.30;86.10;;;21.75;80.87;100842.91;5184291;28;20133;-68
2022/08/23 04:51:59;;;;;;;4.22;3.05;;;21.30;86.20;;;21.74;80.91;100849.09;5185138;28;20041;-68
2022/08/23 04:54:31;;;;;;;3.38;2.65;;;21.20;86.20;;;21.73;80.86;100852.66;5185470;28;20042;-68
2022/08/23 04:57:24;;;;;;;5.38;3.10;;;21.20;86.40;;;21.72;81.03;100855.34;5177535;28;20062;-68
2022/08/23 04:59:57;;;;;;;4.55;3.13;;;21.20;86.50;;;21.70;81.08;100857.97;5183665;28;20046;-68
2022/08/23 05:02:30;;;;;;;5.40;3.10;;;21.20;86.60;;;21.69;81.27;100864.19;5183632;28;20100;-68
2022/08/23 05:05:04;;;;;;;6.05;3.10;;;21.10;86.60;;;21.67;81.27;100863.31;5183606;28;20184;-68
2022/08/23 05:07:41;;;;;;;5.35;3.13;;;21.20;86.80;;;21.66;81.29;100862.44;5183555;28;20423;-67
2022/08/23 05:10:16;;;;;;;4.22;3.15;;;21.20;86.90;;;21.64;81.41;100861.56;5183360;28;20423;-68
2022/08/23 05:12:53;;;;;;;3.72;2.88;;;21.20;87.00;;;21.65;81.52;100873.09;5199811;28;20563;-68
2022/08/23 05:15:27;;;;;;;4.88;3.20;;;21.20;87.10;;;21.65;81.51;100873.97;5183469;28;20415;-69
2022/08/23 05:18:09;;;;;;;3.67;2.80;;;21.10;87.10;;;21.65;81.47;100873.97;5183507;28;20074;-68
2022/08/23 05:20:42;;;;;;;5.07;3.15;;;21.20;87.20;;;21.66;81.54;100878.38;5183401;28;20435;-69
2022/08/23 05:23:14;;;;;;;6.18;3.97;;;21.10;87.20;;;21.66;81.53;100880.16;5183482;28;20384;-66
2022/08/23 05:26:01;;;;;;;5.57;3.03;;;21.20;87.30;;;21.67;81.63;100882.78;5182743;28;20053;-67
2022/08/23 05:28:44;;;;;;;4.90;3.40;;;21.10;87.40;;;21.66;81.60;100885.44;5182842;28;20408;-67
2022/08/23 05:31:21;;;;;;;4.68;3.00;;;21.20;87.40;;;21.66;81.69;100896.94;5183139;28;20530;-67
2022/08/23 05:34:01;;;;;;;4.20;2.80;;;21.20;87.60;;;21.71;81.82;100893.34;5182931;28;20052;-64
2022/08/23 05:36:56;;;;;;;4.05;2.70;;;21.20;87.70;;;21.85;81.51;100891.47;5182929;28;20046;-64
2022/08/23 05:39:44;;;;;;;4.82;3.35;;;21.30;87.60;;;22.02;80.91;100888.63;5182634;28;20042;-64
2022/08/23 05:42:17;;;;;;;5.40;2.97;;;21.40;87.20;;;22.21;80.15;100890.22;5182950;28;20057;-63
2022/08/23 05:44:51;;;;;;;7.53;3.00;;;21.60;86.70;;;22.39;79.30;100889.13;5182716;28;20046;-64
2022/08/23 05:47:28;;;;;;;5.35;3.10;;;21.70;86.10;;;22.59;78.28;100894.19;5182310;28;20132;-64
2022/08/23 05:50:23;;;;;;;5.88;3.03;;;21.90;85.30;;;22.76;77.00;100894.84;5183060;28;20045;-62
2022/08/23 05:52:56;;;;;;;6.97;3.25;;;22.10;84.40;;;22.91;76.08;100904.41;5182557;28;20046;-63
2022/08/23 05:55:28;;;;;;;6.20;3.25;;;22.20;83.70;;;23.02;75.71;100903.34;5182663;28;20057;-63
2022/08/23 05:58:02;;;;;;;5.18;3.10;;;22.40;83.10;;;23.14;75.33;100904.06;5183707;28;20046;-64
2022/08/23 06:00:34;;;;;;;4.07;2.80;;;22.40;82.90;;;23.24;74.98;100906.56;5186044;28;20129;-65
2022/08/23 06:03:08;;;;;;;4.72;3.03;;;22.50;82.60;;;23.37;74.83;100909.91;5186977;28;20453;-63
2022/08/23 06:05:42;;;;;;;6.35;3.08;;;22.60;82.10;;;23.46;74.63;100909.75;5186704;28;20108;-53
2022/08/23 06:08:15;;;;;;;4.72;2.90;;;22.70;82.10;;;23.55;74.17;100909.59;5186870;28;20046;-51
2022/08/23 06:10:48;;;;;;;5.60;2.95;;;22.80;81.60;;;23.64;73.97;100911.25;5186819;28;20046;-50
2022/08/23 06:13:30;;;;;;;5.20;2.83;;;22.90;81.40;;;23.73;73.73;100921.72;5186803;28;20049;-54
2022/08/23 06:16:05;;;;;;;5.25;2.65;;;23.00;81.60;;;23.84;73.49;100926.88;5187617;28;20576;-54
2022/08/23 06:18:37;;;;;;;5.43;2.70;;;23.10;80.70;;;23.94;72.49;100916.97;5186878;28;20137;-53
2022/08/23 06:21:38;;;;;;;4.68;2.67;;;23.20;80.00;;;24.04;71.82;100924.72;5187798;28;20050;-54
2022/08/23 06:24:12;;;;;;;3.78;2.47;;;23.30;79.10;;;24.15;71.09;100915.66;5186533;28;20058;-56
2022/08/23 06:26:53;;;;;;;3.28;2.40;;;23.40;78.70;;;24.26;70.61;100927.00;5186271;28;20073;-53
2022/08/23 06:29:25;;;;;;;5.57;2.72;;;23.50;78.20;;;24.36;70.45;100923.25;5187714;28;20117;-54
2022/08/23 06:32:17;;;;;;;3.67;2.55;;;23.60;78.00;;;24.48;69.88;100923.03;5187489;28;20042;-54
2022/08/23 06:35:10;;;;;;;4.30;2.70;;;23.70;77.50;;;24.56;69.74;100923.72;5187496;28;20046;-53
2022/08/23 06:38:12;;;;;;;3.85;2.40;;;23.80;77.20;;;24.69;69.21;100923.47;5176841;28;20050;-53
2022/08/23 06:41:23;;;;;;;3.80;2.20;;;23.90;76.60;;;24.87;68.38;100931.09;5170144;28;20050;-52
2022/08/23 06:44:08;;;;;;;3.35;2.20;;;24.10;75.80;;;24.99;67.74;100928.16;5187285;28;20050;-54
2022/08/23 06:46:58;;;;;;;2.17;1.90;;;24.20;75.00;;;25.07;66.81;100920.88;5187114;28;20126;-60
2022/08/23 06:49:32;;;;;;;3.40;2.28;;;24.30;74.30;;;25.22;66.09;100930.31;5186151;28;20046;-62
2022/08/23 06:52:05;;;;;;;3.05;1.98;;;24.40;73.60;;;25.29;64.83;100923.03;5186115;28;20136;-63
2022/08/23 06:55:04;;;;;;;2.90;1.85;;;24.50;72.50;;;25.28;63.93;100935.50;5186042;28;20046;-62
2022/08/23 06:57:55;;;;;;;4.00;1.83;;;24.60;71.40;;;25.34;63.19;100931.81;5185766;28;20061;-64
2022/08/23 07:01:17;;;;;;;4.72;1.85;;;24.60;70.70;;;25.36;62.98;100933.50;5187041;28;20499;-63
2022/08/23 07:04:06;;;;;;;;;;;24.70;70.20;;;25.38;62.77;100936.16;5186286;28;20141;-63
2022/08/23 07:07:09;;;;;;;3.20;2.03;;;24.60;69.80;;;25.48;62.68;100943.03;5150741;28;19921;-63
2022/08/23 07:09:41;;;;;;;3.63;1.92;;;24.70;69.80;;;25.61;62.89;100947.13;5186407;28;20553;-64
2022/08/23 07:12:15;;;;;;;4.78;1.92;;;24.80;70.00;;;25.55;62.60;100949.97;5186383;28;20405;-63
2022/08/23 07:14:48;;;;;;;3.13;1.75;;;24.80;69.40;;;25.54;62.48;100945.53;5184870;28;20041;-66
2022/08/23 07:17:21;;;;;;;3.35;1.90;;;24.70;69.30;;;25.56;62.29;100951.75;5175042;28;20050;-63
2022/08/23 07:19:55;;;;;;;5.32;2.20;;;24.70;69.10;;;25.58;62.33;100955.25;5184441;28;20458;-64
2022/08/23 07:22:27;;;;;;;3.92;2.20;;;24.80;69.30;;;25.60;62.23;100953.41;5185449;28;20396;-62
2022/08/23 07:24:59;;;;;;;3.13;2.00;;;24.80;69.00;;;25.60;61.84;100953.41;5186553;28;20049;-64
2022/08/23 07:27:35;;;;;;;4.10;2.22;;;24.80;68.60;;;25.60;61.76;100953.41;5187749;28;20041;-64
2022/08/23 07:30:10;;;;;;;5.25;2.13;;;24.80;68.40;;;25.77;61.64;100954.81;5185196;28;20562;-63
2022/08/23 07:32:45;;;;;;;4.50;2.20;;;24.90;68.40;;;25.92;60.99;100965.97;5186467;28;20056;-64
2022/08/23 07:35:28;;;;;;;3.45;2.10;;;25.00;67.90;;;26.02;60.66;100960.38;5184842;28;20415;-63
2022/08/23 07:38:03;;;;;;;3.38;2.10;;;25.10;67.60;;;26.15;60.14;100967.19;5184849;28;20499;-63
2022/08/23 07:40:38;;;;;;;3.85;2.33;;;25.30;67.20;;;26.25;59.07;100964.19;5185050;28;20072;-63
2022/08/23 07:43:12;;;;;;;4.00;2.00;;;25.40;66.30;;;26.37;59.01;100967.47;5185052;28;20046;-63
2022/08/23 07:45:48;;;;;;;5.40;2.10;;;25.40;66.20;;;26.46;58.87;100970.75;5184807;28;20077;-63
2022/08/23 07:48:20;;;;;;;4.13;2.30;;;25.50;65.80;;;26.45;58.56;100968.16;5184766;28;20054;-63
2022/08/23 07:51:14;;;;;;;4.25;2.28;;;25.50;65.50;;;26.55;58.63;100971.44;5184871;28;20038;-63
2022/08/23 07:53:46;;;;;;;4.47;2.60;;;25.60;65.60;;;26.65;58.07;100968.44;5186204;28;20042;-63
2022/08/23 07:56:22;;;;;;;4.88;2.33;;;25.70;65.10;;;26.72;57.90;100979.84;5184598;28;20042;-64
2022/08/23 07:59:08;;;;;;;3.53;2.20;;;25.80;64.70;;;26.88;58.00;100958.88;5184733;28;20502;-67
2022/08/23 08:01:45;;;;;;;2.30;1.95;;;25.90;65.00;;;27.17;57.46;100971.41;5184704;28;20042;-59
2022/08/23 08:04:18;;;;;;;4.35;2.10;;;26.00;64.80;;;27.47;56.79;100969.56;5184616;28;20049;-59
2022/08/23 08:06:53;;;;;;;4.72;2.20;;;26.30;64.30;;;27.85;55.99;100965.66;5184128;28;20104;-59
2022/08/23 08:09:27;;;;;;;4.20;2.38;;;26.60;63.70;;;28.13;55.23;100976.28;5184427;28;20100;-63
2022/08/23 08:12:01;;;;;;;3.42;1.95;;;26.80;63.20;;;28.54;54.69;100971.25;5184343;28;20045;-64
2022/08/23 08:14:37;;;;;;;4.07;2.22;;;27.10;62.70;;;29.03;54.38;100974.81;5184457;28;20046;-66
2022/08/23 08:17:10;;;;;;;5.40;2.60;;;27.40;62.60;;;29.51;52.74;100972.00;5184035;28;20396;-65
2022/08/23 08:20:04;;;;;;;5.35;2.55;;;27.70;61.60;;;30.14;52.27;100981.00;5175031;28;20065;-61
2022/08/23 08:22:39;;;;;;;2.75;2.28;;;28.00;61.10;;;30.72;51.01;100981.13;5184951;28;20077;-60
2022/08/23 08:25:34;;;;;;;3.33;2.10;;;28.40;60.20;;;31.40;49.60;100976.13;5185265;28;20388;-61
2022/08/23 08:28:10;;;;;;;4.22;2.10;;;28.80;59.40;;;31.97;48.96;100976.88;5183908;28;20054;-60
2022/08/23 08:30:44;;;;;;;4.35;2.00;;;29.10;58.90;;;32.44;48.54;100984.31;5184203;28;20466;-62
2022/08/23 08:33:16;;;;;;;4.68;2.20;;;29.40;58.60;;;33.17;47.78;100980.28;5184085;28;20404;-60
2022/08/23 08:35:50;;;;;;;4.43;2.00;;;29.80;58.50;;;33.48;45.93;100974.03;5183493;28;20136;-61
2022/08/23 08:38:24;;;;;;;6.78;2.10;;;30.10;56.60;;;33.89;45.23;100978.84;5183905;28;20100;-62
2022/08/23 08:41:08;;;;;;;4.10;2.15;;;30.50;55.80;;;35.10;44.58;100974.09;5183420;28;20100;-60
2022/08/23 08:43:56;;;;;;;4.38;2.40;;;31.40;55.30;;;36.38;42.89;100975.41;5183692;28;20435;-62
2022/08/23 08:46:43;;;;;;;4.60;1.92;;;32.50;54.00;;;37.13;41.25;100980.91;5183390;28;20056;-61
2022/08/23 08:49:23;;;;;;;4.50;2.10;;;33.20;51.90;;;37.62;40.34;100977.25;5183500;28;20081;-61
2022/08/23 08:52:00;;;;;;;3.00;1.98;;;33.80;50.90;;;38.09;40.23;100983.69;5184553;28;20096;-65
2022/08/23 08:54:34;;;;;;;4.88;1.80;;;34.30;50.30;;;38.45;39.42;100980.78;5183428;28;20104;-63
2022/08/23 08:57:08;;;;;;;2.95;1.85;;;34.60;49.30;;;38.78;39.62;100970.94;5183484;28;20140;-60
2022/08/23 09:00:01;;;;;;;3.42;1.92;;;35.00;49.40;;;39.15;39.79;100978.84;5183333;28;20050;-64
2022/08/23 09:02:37;;;;;;;6.55;2.30;;;35.20;49.30;;;39.13;38.75;100980.81;5183514;28;20061;-64
2022/08/23 09:05:17;;;;;;;4.20;2.00;;;35.40;48.30;;;38.81;39.04;100982.47;5183385;28;20476;-64
2022/08/23 09:08:08;;;;;;;5.80;1.83;;;35.30;47.90;;;38.59;39.33;100976.09;5182918;28;20104;-60
2022/08/23 09:10:53;;;;;;;4.45;2.10;;;35.30;48.20;;;37.94;39.62;100986.56;5182960;28;20052;-63
2022/08/23 09:13:52;;;;;;;3.40;1.70;;;35.10;47.90;;;37.38;40.19;100978.16;5182751;28;20070;-62
2022/08/23 09:16:40;;;;;;;5.20;2.13;;;34.80;48.10;;;36.98;40.31;100973.91;5157764;28;20589;-63
2022/08/23 09:19:15;;;;;;;3.45;1.70;;;34.60;48.20;;;36.31;41.01;100974.97;5179343;28;20050;-60
2022/08/23 09:21:55;;;;;;;3.47;2.20;;;34.30;48.20;;;35.85;42.43;100978.13;5182758;28;20404;-60
2022/08/23 09:24:30;;;;;;;5.28;2.17;;;34.10;49.20;;;35.50;43.51;100974.22;5182410;28;20131;-61
2022/08/23 09:27:12;;;;;;;4.13;2.15;;;33.80;49.90;;;34.99;43.88;100969.38;5182288;28;20073;-63
2022/08/23 09:29:54;;;;;;;5.20;1.85;;;33.50;50.10;;;34.46;44.55;100972.75;5182925;28;20050;-64
2022/08/23 09:32:32;;;;;;;4.63;2.28;;;33.20;50.40;;;34.13;45.67;100968.41;5183036;28;20057;-60
2022/08/23 09:35:14;;;;;;;3.10;1.95;;;32.90;51.30;;;33.87;46.05;100964.56;5182752;28;20569;-58
2022/08/23 09:37:58;;;;;;;4.68;1.85;;;32.70;51.70;;;33.68;46.35;100963.91;5182566;28;20078;-59
2022/08/23 09:40:38;;;;;;;2.30;1.75;;;32.40;51.90;;;33.55;46.57;100969.16;5182784;28;20551;-58
2022/08/23 09:43:15;;;;;;;3.28;1.73;;;32.30;52.40;;;33.42;46.70;100957.31;5182908;28;20509;-59
2022/08/23 09:46:00;;;;;;;5.72;2.13;;;32.10;52.20;;;33.30;47.30;100952.59;5182663;28;20069;-59
2022/08/23 09:48:42;;;;;;;2.50;1.65;;;32.00;52.90;;;33.36;47.50;100963.91;5182892;28;20049;-58
2022/08/23 09:51:26;;;;;;;3.20;1.80;;;32.10;53.10;;;33.43;47.31;100961.75;5183024;28;20137;-61
2022/08/23 09:54:11;;;;;;;3.97;1.52;;;32.10;53.00;;;33.39;47.06;100960.22;5182908;28;20427;-58
2022/08/23 09:56:51;;;;;;;3.58;1.98;;;32.10;52.70;;;33.37;46.89;100956.69;5182404;28;20395;-58
2022/08/23 09:59:40;;;;;;;2.33;1.75;;;32.00;52.60;;;33.43;47.11;100961.75;5184139;28;20050;-59
2022/08/23 10:02:28;;;;;;;5.68;1.88;;;32.10;52.90;;;33.46;47.16;100953.50;5182704;28;20137;-58
2022/08/23 10:05:09;;;;;;;3.50;1.63;;;32.10;52.80;;;33.40;46.73;100951.16;5182674;28;20053;-58
2022/08/23 10:07:53;;;;;;;3.33;1.42;;;32.00;52.30;;;33.36;46.65;100949.53;5182201;28;20049;-60
2022/08/23 10:10:32;;;;;;;3.38;1.80;;;32.10;53.10;;;33.28;46.91;100943.72;5182851;28;20046;-59
2022/08/23 10:13:08;;;;;;;4.20;2.00;;;32.00;52.50;;;33.27;46.87;100944.69;5182799;28;20392;-59
2022/08/23 10:15:57;;;;;;;3.25;1.90;;;32.00;52.50;;;33.26;46.87;100945.66;5182625;28;20053;-58
2022/08/23 10:18:47;;;;;;;4.50;2.20;;;32.00;52.70;;;33.14;46.63;100948.06;5182348;28;20046;-59
2022/08/23 10:21:27;;;;;;;4.55;1.90;;;31.90;52.40;;;32.85;47.01;100944.28;5182819;28;20057;-58
2022/08/23 10:24:27;;;;;;;4.35;1.90;;;31.70;52.50;;;32.81;47.20;100939.16;5182513;28;20104;-59
2022/08/23 10:30:13;;;;;;;5.13;2.00;;;31.70;52.20;;;33.16;46.28;100945.28;5139589;28;20514;-61
2022/08/23 10:33:04;;;;;;;5.20;2.10;;;31.80;52.30;;;33.13;45.22;100942.78;5182549;28;20052;-59
2022/08/23 10:35:49;;;;;;;5.25;2.05;;;31.90;51.50;;;33.08;45.56;100948.44;5181987;28;20050;-60
2022/08/23 10:38:37;;;;;;;4.50;1.88;;;31.80;51.40;;;33.10;45.81;100946.50;5182423;28;20054;-61
2022/08/23 10:41:38;;;;;;;2.45;1.90;;;31.90;51.70;;;33.26;45.83;100942.94;5182244;28;20072;-60
2022/08/23 10:44:25;;;;;;;2.85;1.70;;;32.00;51.80;;;33.44;45.24;100934.66;5182300;28;20053;-61
2022/08/23 10:47:15;;;;;;;3.55;1.73;;;32.10;51.20;;;33.38;44.95;100929.56;5185206;28;20104;-59
2022/08/23 10:49:53;;;;;;;3.10;1.70;;;32.10;50.70;;;33.39;45.32;100938.59;5185991;28;20096;-60
2022/08/23 10:52:33;;;;;;;4.30;1.80;;;32.10;51.10;;;33.46;45.63;100932.75;5186100;28;20046;-62
2022/08/23 10:55:34;;;;;;;4.13;1.90;;;32.20;51.40;;;33.57;45.50;100934.78;5185874;28;20054;-61
2022/08/23 10:58:20;;;;;;;3.95;1.90;;;32.20;51.10;;;33.66;44.93;100934.28;5186932;28;20117;-60
2022/08/23 11:00:56;;;;;;;5.25;2.10;;;32.30;50.80;;;33.45;44.54;100922.91;5185603;28;20046;-60
2022/08/23 11:03:33;;;;;;;4.80;2.10;;;32.20;50.30;;;33.18;44.72;100921.75;5185396;28;20144;-59
2022/08/23 11:06:51;;;;;;;2.70;1.60;;;32.10;50.30;;;33.13;45.64;100919.34;5185531;28;20042;-61
2022/08/23 11:09:51;;;;;;;4.65;1.80;;;32.00;51.10;;;33.30;45.58;100912.94;5185900;28;20084;-61
2022/08/23 11:12:29;;;;;;;3.95;1.75;;;32.10;51.20;;;33.38;45.13;100917.88;5185881;28;20046;-60